TimePDT,TemperatureF,Dew PointF,Humidity,Sea Level PressureIn,VisibilityMPH,Wind Direction,Wind SpeedMPH,Gust SpeedMPH,PrecipitationIn,Events,Conditions,WindDirDegrees,DateUTC
12:53 AM,45.0,36.0,71,30.02,10.0,Calm,Calm,-,N/A,,Overcast,0,2013-10-11 07:53:00
1:53 AM,44.1,37.0,76,30.05,10.0,Calm,Calm,-,N/A,,Overcast,0,2013-10-11 08:53:00
2:53 AM,43.0,37.9,82,30.05,10.0,Calm,Calm,-,N/A,,Overcast,0,2013-10-11 09:53:00
3:53 AM,41.0,36.0,82,30.06,10.0,Calm,Calm,-,N/A,,Overcast,0,2013-10-11 10:53:00
4:53 AM,45.0,39.0,80,30.08,10.0,WNW,4.6,-,N/A,,Overcast,290,2013-10-11 11:53:00
5:53 AM,43.0,37.9,82,30.09,10.0,Calm,Calm,-,N/A,,Overcast,0,2013-10-11 12:53:00
6:53 AM,43.0,39.0,86,30.11,10.0,Calm,Calm,-,N/A,,Overcast,0,2013-10-11 13:53:00
7:53 AM,45.0,39.9,82,30.12,10.0,Calm,Calm,-,N/A,,Overcast,0,2013-10-11 14:53:00
8:53 AM,45.0,39.9,82,30.13,10.0,Calm,Calm,-,N/A,,Overcast,0,2013-10-11 15:53:00
9:53 AM,46.0,39.9,79,30.14,10.0,Calm,Calm,-,N/A,,Overcast,0,2013-10-11 16:53:00
10:53 AM,48.9,41.0,74,30.14,10.0,Calm,Calm,-,N/A,,Overcast,0,2013-10-11 17:53:00
11:53 AM,50.0,39.9,68,30.14,10.0,Calm,Calm,-,N/A,,Overcast,0,2013-10-11 18:53:00
12:12 PM,50.0,39.2,66,30.11,10.0,WSW,4.6,-,N/A,,Overcast,240,2013-10-11 19:12:00
12:22 PM,51.8,39.2,62,30.11,10.0,WSW,5.8,-,N/A,,Overcast,250,2013-10-11 19:22:00
12:29 PM,51.8,39.2,62,30.11,10.0,Calm,Calm,-,N/A,,Overcast,0,2013-10-11 19:29:00
12:44 PM,51.8,39.2,62,30.10,10.0,Calm,Calm,-,N/A,,Overcast,0,2013-10-11 19:44:00
12:53 PM,52.0,39.0,61,30.12,10.0,WSW,10.4,-,N/A,,Overcast,240,2013-10-11 19:53:00
1:53 PM,52.0,39.0,61,30.12,10.0,Calm,Calm,-,N/A,,Overcast,0,2013-10-11 20:53:00
2:53 PM,53.1,37.9,57,30.11,10.0,Variable,5.8,-,N/A,,Overcast,0,2013-10-11 21:53:00
3:53 PM,53.1,36.0,52,30.11,10.0,NW,3.5,-,N/A,,Overcast,310,2013-10-11 22:53:00
4:53 PM,53.1,36.0,52,30.09,7.0,Calm,Calm,-,N/A,,Overcast,0,2013-10-11 23:53:00
5:53 PM,52.0,37.0,57,30.09,4.0,Calm,Calm,-,N/A,,Haze,0,2013-10-12 00:53:00
6:53 PM,50.0,37.9,63,30.09,10.0,Calm,Calm,-,N/A,,Overcast,0,2013-10-12 01:53:00
7:53 PM,48.0,37.9,68,30.08,10.0,Calm,Calm,-,N/A,,Overcast,0,2013-10-12 02:53:00
8:53 PM,48.0,39.0,71,30.08,10.0,Calm,Calm,-,N/A,,Overcast,0,2013-10-12 03:53:00
9:53 PM,48.0,39.0,71,30.07,10.0,NE,4.6,-,N/A,,Overcast,50,2013-10-12 04:53:00
10:53 PM,45.0,39.0,80,30.07,10.0,Calm,Calm,-,N/A,,Mostly Cloudy,0,2013-10-12 05:53:00
11:53 PM,45.0,37.9,76,30.06,10.0,Calm,Calm,-,N/A,,Mostly Cloudy,0,2013-10-12 06:53:00